Aérodrome :
LOGIN :

S'inscrire | Disclaimer

   EN    FR    IT 

 










Légende :    VFR   VFR Marginal   IFR   IFR Intensif   IFR Très Intensif
Visi : 
Plafond : 
>= 8 km
>= 3000ft
5 à 8 km
1000 à 3000 ft
1500m à 5 km
500 à 1000 ft
800 à 1500m
200 à 500 ft
< 800m
< 200 ft
Symboles :   Orages  Brouillard  Fortes neiges  Fortes précipitations  Vent > 20 kt
SIGMETs :   Divers  Orages  Givrage  Turbulence  Onde Orograph.  Cendres Volcan.






- Altitude de l'aérodrome : 36 ft
- Code IATA : LTQ


LFAT - Le Touquet

DERNIER METAR :
  • 281230Z AUTO 04018G31KT 010V070 CAVOK 12/04 Q1024 NOSIG

METARs EXPIRÉS :
  • 281200Z AUTO 04021G34KT 360V080 CAVOK 12/04 Q1024 NOSIG
  • 281130Z AUTO 03020KT CAVOK 12/04 Q1023 TEMPO 03020G30KT
  • 281100Z AUTO 04017G27KT 360V070 9000 NSC 12/06 Q1023 NOSIG
  • 281030Z AUTO 03013KT 360V060 8000 NSC 12/06 Q1023 BECMG 03020G30KT
  • 281000Z AUTO 03011KT 350V070 7000 NSC 11/06 Q1023 BECMG 03020G30KT

TAF TAF LFAT
Valide du 28 à 12h jusqu'au 28 à 21h UTC


281100Z 2812/2821 03015KT CAVOK
TEMPO 2812/2821 03020G30KT
ATIS : +33 3 21 06 62 84



MET'MAP, la Météo Aéronautique d'un coup d'oeil ! - Copyright ORBIFLY Décembre 2007 - Disclaimer

ORBIFLY MET'MAP TEAM :

Programmation & Développement : Alexandra Zaïnal
Sur une idée originale de : Baudouin d'Aumeries
Assistance à la programmation : Marc-Olivier Méhu
Soutien technique & logistique : Manuel Goepfert

Contact : metmap@orbifly.com




SOURCES & CREDITS :

   NOAA